sensor_id;sensor_type;location;lat;lon;timestamp;P1;durP1;ratioP1;P2;durP2;ratioP2
78781;SDS011;68126;55.748;48.742;2023-02-28T00:04:33;7.10;;;5.10;;
78781;SDS011;68126;55.748;48.742;2023-02-28T00:09:57;7.28;;;4.60;;
78781;SDS011;68126;55.748;48.742;2023-02-28T00:15:23;6.78;;;5.25;;
78781;SDS011;68126;55.748;48.742;2023-02-28T00:20:47;8.83;;;4.97;;
78781;SDS011;68126;55.748;48.742;2023-02-28T00:26:12;8.73;;;6.40;;
78781;SDS011;68126;55.748;48.742;2023-02-28T00:31:37;5.40;;;3.65;;
78781;SDS011;68126;55.748;48.742;2023-02-28T00:37:02;4.60;;;3.50;;
78781;SDS011;68126;55.748;48.742;2023-02-28T00:42:26;7.58;;;4.95;;
78781;SDS011;68126;55.748;48.742;2023-02-28T00:47:51;5.05;;;3.10;;
78781;SDS011;68126;55.748;48.742;2023-02-28T00:53:16;3.98;;;3.33;;
78781;SDS011;68126;55.748;48.742;2023-02-28T00:58:41;6.72;;;3.27;;
78781;SDS011;68126;55.748;48.742;2023-02-28T01:04:05;4.95;;;3.33;;
78781;SDS011;68126;55.748;48.742;2023-02-28T01:09:30;4.37;;;3.95;;
78781;SDS011;68126;55.748;48.742;2023-02-28T01:14:54;6.25;;;4.28;;
78781;SDS011;68126;55.748;48.742;2023-02-28T01:20:20;5.20;;;3.12;;
78781;SDS011;68126;55.748;48.742;2023-02-28T01:25:44;4.90;;;3.75;;
78781;SDS011;68126;55.748;48.742;2023-02-28T01:31:09;6.25;;;4.40;;
78781;SDS011;68126;55.748;48.742;2023-02-28T01:36:34;5.72;;;4.10;;
78781;SDS011;68126;55.748;48.742;2023-02-28T01:41:58;7.83;;;6.25;;
78781;SDS011;68126;55.748;48.742;2023-02-28T01:47:43;7.10;;;4.15;;
78781;SDS011;68126;55.748;48.742;2023-02-28T01:53:09;7.47;;;5.55;;
78781;SDS011;68126;55.748;48.742;2023-02-28T01:58:34;8.70;;;5.80;;
78781;SDS011;68126;55.748;48.742;2023-02-28T02:04:01;8.53;;;5.03;;
78781;SDS011;68126;55.748;48.742;2023-02-28T02:09:25;7.72;;;5.17;;
78781;SDS011;68126;55.748;48.742;2023-02-28T02:43:33;5.35;;;4.10;;
78781;SDS011;68126;55.748;48.742;2023-02-28T02:48:59;6.40;;;4.62;;
78781;SDS011;68126;55.748;48.742;2023-02-28T02:54:27;5.33;;;3.55;;
78781;SDS011;68126;55.748;48.742;2023-02-28T02:59:51;4.17;;;2.83;;
78781;SDS011;68126;55.748;48.742;2023-02-28T03:05:19;6.17;;;3.98;;
78781;SDS011;68126;55.748;48.742;2023-02-28T03:10:45;5.03;;;3.90;;
78781;SDS011;68126;55.748;48.742;2023-02-28T03:16:49;7.17;;;4.87;;
78781;SDS011;68126;55.748;48.742;2023-02-28T03:21:38;5.58;;;4.65;;
78781;SDS011;68126;55.748;48.742;2023-02-28T03:33:03;5.95;;;4.12;;
78781;SDS011;68126;55.748;48.742;2023-02-28T03:43:41;7.15;;;5.97;;
78781;SDS011;68126;55.748;48.742;2023-02-28T03:54:51;6.50;;;4.37;;
78781;SDS011;68126;55.748;48.742;2023-02-28T04:00:53;5.58;;;4.08;;
78781;SDS011;68126;55.748;48.742;2023-02-28T04:17:14;4.85;;;4.03;;
78781;SDS011;68126;55.748;48.742;2023-02-28T04:22:39;5.10;;;4.05;;
78781;SDS011;68126;55.748;48.742;2023-02-28T04:28:04;7.20;;;5.37;;
78781;SDS011;68126;55.748;48.742;2023-02-28T04:33:28;4.00;;;3.25;;
78781;SDS011;68126;55.748;48.742;2023-02-28T04:38:54;5.40;;;3.75;;
78781;SDS011;68126;55.748;48.742;2023-02-28T04:44:18;7.25;;;5.40;;
78781;SDS011;68126;55.748;48.742;2023-02-28T04:49:43;10.93;;;5.67;;
78781;SDS011;68126;55.748;48.742;2023-02-28T04:55:08;10.50;;;6.50;;
78781;SDS011;68126;55.748;48.742;2023-02-28T05:00:33;11.75;;;6.90;;
78781;SDS011;68126;55.748;48.742;2023-02-28T05:11:22;11.63;;;7.25;;
78781;SDS011;68126;55.748;48.742;2023-02-28T05:16:47;8.08;;;5.70;;
78781;SDS011;68126;55.748;48.742;2023-02-28T05:22:13;9.50;;;5.78;;
78781;SDS011;68126;55.748;48.742;2023-02-28T05:27:39;6.75;;;4.55;;
78781;SDS011;68126;55.748;48.742;2023-02-28T05:33:03;7.83;;;5.25;;
78781;SDS011;68126;55.748;48.742;2023-02-28T05:38:28;7.42;;;5.05;;
78781;SDS011;68126;55.748;48.742;2023-02-28T05:43:53;8.55;;;5.05;;
78781;SDS011;68126;55.748;48.742;2023-02-28T05:49:17;7.22;;;5.35;;
78781;SDS011;68126;55.748;48.742;2023-02-28T05:54:42;9.65;;;5.08;;
78781;SDS011;68126;55.748;48.742;2023-02-28T06:00:07;7.15;;;4.83;;
78781;SDS011;68126;55.748;48.742;2023-02-28T06:05:32;7.92;;;4.65;;
78781;SDS011;68126;55.748;48.742;2023-02-28T06:10:56;8.85;;;4.90;;
78781;SDS011;68126;55.748;48.742;2023-02-28T06:16:21;9.35;;;3.10;;
78781;SDS011;68126;55.748;48.742;2023-02-28T06:21:47;7.15;;;4.75;;
78781;SDS011;68126;55.748;48.742;2023-02-28T06:27:14;8.85;;;4.62;;
78781;SDS011;68126;55.748;48.742;2023-02-28T06:32:39;5.85;;;3.65;;
78781;SDS011;68126;55.748;48.742;2023-02-28T06:38:03;6.87;;;3.95;;
78781;SDS011;68126;55.748;48.742;2023-02-28T06:48:51;8.65;;;5.33;;
78781;SDS011;68126;55.748;48.742;2023-02-28T06:54:16;7.92;;;3.95;;
78781;SDS011;68126;55.748;48.742;2023-02-28T06:59:41;5.20;;;4.22;;
78781;SDS011;68126;55.748;48.742;2023-02-28T07:05:05;5.58;;;3.40;;
78781;SDS011;68126;55.748;48.742;2023-02-28T07:10:32;5.67;;;4.03;;
78781;SDS011;68126;55.748;48.742;2023-02-28T07:15:58;3.80;;;3.40;;
78781;SDS011;68126;55.748;48.742;2023-02-28T07:21:23;5.17;;;3.75;;
78781;SDS011;68126;55.748;48.742;2023-02-28T07:26:48;3.80;;;3.00;;
78781;SDS011;68126;55.748;48.742;2023-02-28T07:32:13;2.67;;;2.35;;
78781;SDS011;68126;55.748;48.742;2023-02-28T07:37:37;3.95;;;2.85;;
78781;SDS011;68126;55.748;48.742;2023-02-28T07:43:03;3.47;;;2.15;;
78781;SDS011;68126;55.748;48.742;2023-02-28T07:48:28;4.15;;;2.52;;
78781;SDS011;68126;55.748;48.742;2023-02-28T07:53:53;4.00;;;2.95;;
78781;SDS011;68126;55.748;48.742;2023-02-28T07:59:17;6.75;;;2.92;;
78781;SDS011;68126;55.748;48.742;2023-02-28T08:04:42;3.27;;;2.37;;
78781;SDS011;68126;55.748;48.742;2023-02-28T08:10:07;3.60;;;2.65;;
78781;SDS011;68126;55.748;48.742;2023-02-28T08:15:32;2.80;;;2.15;;
78781;SDS011;68126;55.748;48.742;2023-02-28T08:20:56;5.80;;;1.55;;
78781;SDS011;68126;55.748;48.742;2023-02-28T08:26:21;2.37;;;1.57;;
78781;SDS011;68126;55.748;48.742;2023-02-28T08:31:46;3.02;;;2.12;;
78781;SDS011;68126;55.748;48.742;2023-02-28T08:37:10;2.67;;;2.47;;
78781;SDS011;68126;55.748;48.742;2023-02-28T08:42:35;3.52;;;2.22;;
78781;SDS011;68126;55.748;48.742;2023-02-28T08:47:59;4.03;;;1.52;;
78781;SDS011;68126;55.748;48.742;2023-02-28T08:53:24;3.87;;;2.50;;
78781;SDS011;68126;55.748;48.742;2023-02-28T08:58:49;1.90;;;1.75;;
78781;SDS011;68126;55.748;48.742;2023-02-28T09:04:15;3.17;;;1.92;;
78781;SDS011;68126;55.748;48.742;2023-02-28T09:09:40;2.47;;;1.95;;
78781;SDS011;68126;55.748;48.742;2023-02-28T09:15:07;2.15;;;1.60;;
78781;SDS011;68126;55.748;48.742;2023-02-28T09:20:31;2.30;;;1.95;;
78781;SDS011;68126;55.748;48.742;2023-02-28T09:25:58;3.12;;;2.40;;
78781;SDS011;68126;55.748;48.742;2023-02-28T09:31:24;2.77;;;2.22;;
78781;SDS011;68126;55.748;48.742;2023-02-28T09:36:48;2.70;;;2.15;;
78781;SDS011;68126;55.748;48.742;2023-02-28T09:42:18;1.85;;;1.62;;
78781;SDS011;68126;55.748;48.742;2023-02-28T09:47:41;2.50;;;1.98;;
78781;SDS011;68126;55.748;48.742;2023-02-28T09:53:11;2.77;;;2.58;;
78781;SDS011;68126;55.748;48.742;2023-02-28T10:10:02;2.70;;;2.42;;
78781;SDS011;68126;55.748;48.742;2023-02-28T10:15:29;2.45;;;2.17;;
78781;SDS011;68126;55.748;48.742;2023-02-28T10:20:55;3.90;;;2.75;;
78781;SDS011;68126;55.748;48.742;2023-02-28T10:26:20;3.55;;;3.02;;
78781;SDS011;68126;55.748;48.742;2023-02-28T10:31:45;4.10;;;2.52;;
78781;SDS011;68126;55.748;48.742;2023-02-28T10:37:11;2.08;;;1.20;;
78781;SDS011;68126;55.748;48.742;2023-02-28T10:42:37;4.08;;;2.58;;
78781;SDS011;68126;55.748;48.742;2023-02-28T10:59:31;3.00;;;2.05;;
78781;SDS011;68126;55.748;48.742;2023-02-28T11:04:56;2.40;;;1.77;;
78781;SDS011;68126;55.748;48.742;2023-02-28T11:10:21;2.77;;;2.10;;
78781;SDS011;68126;55.748;48.742;2023-02-28T11:21:33;3.22;;;1.98;;
78781;SDS011;68126;55.748;48.742;2023-02-28T11:27:00;2.50;;;2.27;;
78781;SDS011;68126;55.748;48.742;2023-02-28T11:32:25;1.82;;;1.22;;
78781;SDS011;68126;55.748;48.742;2023-02-28T11:37:52;3.85;;;2.02;;
78781;SDS011;68126;55.748;48.742;2023-02-28T11:49:35;2.58;;;1.55;;
78781;SDS011;68126;55.748;48.742;2023-02-28T12:00:18;3.58;;;2.47;;
78781;SDS011;68126;55.748;48.742;2023-02-28T12:05:40;3.77;;;1.32;;
78781;SDS011;68126;55.748;48.742;2023-02-28T12:16:35;1.98;;;1.60;;
78781;SDS011;68126;55.748;48.742;2023-02-28T12:27:44;4.45;;;2.50;;
78781;SDS011;68126;55.748;48.742;2023-02-28T12:33:10;2.50;;;2.15;;
78781;SDS011;68126;55.748;48.742;2023-02-28T12:44:22;5.10;;;2.70;;
78781;SDS011;68126;55.748;48.742;2023-02-28T13:12:47;3.47;;;2.40;;
78781;SDS011;68126;55.748;48.742;2023-02-28T13:18:27;4.37;;;2.45;;
78781;SDS011;68126;55.748;48.742;2023-02-28T13:24:35;3.22;;;1.98;;
78781;SDS011;68126;55.748;48.742;2023-02-28T13:40:58;3.62;;;2.42;;
78781;SDS011;68126;55.748;48.742;2023-02-28T14:37:55;3.42;;;2.10;;
78781;SDS011;68126;55.748;48.742;2023-02-28T14:48:36;2.37;;;1.72;;
78781;SDS011;68126;55.748;48.742;2023-02-28T15:11:13;3.80;;;1.87;;
78781;SDS011;68126;55.748;48.742;2023-02-28T15:50:27;6.80;;;3.33;;
78781;SDS011;68126;55.748;48.742;2023-02-28T15:55:54;2.37;;;1.98;;
78781;SDS011;68126;55.748;48.742;2023-02-28T16:01:20;2.95;;;1.80;;
78781;SDS011;68126;55.748;48.742;2023-02-28T16:12:31;3.20;;;2.42;;
78781;SDS011;68126;55.748;48.742;2023-02-28T16:17:56;2.98;;;1.75;;
78781;SDS011;68126;55.748;48.742;2023-02-28T16:23:21;2.62;;;2.17;;
78781;SDS011;68126;55.748;48.742;2023-02-28T16:28:46;3.70;;;3.08;;
78781;SDS011;68126;55.748;48.742;2023-02-28T16:34:10;3.47;;;2.72;;
78781;SDS011;68126;55.748;48.742;2023-02-28T16:39:35;3.52;;;2.72;;
78781;SDS011;68126;55.748;48.742;2023-02-28T16:45:00;3.37;;;2.12;;
78781;SDS011;68126;55.748;48.742;2023-02-28T16:56:42;3.87;;;2.25;;
78781;SDS011;68126;55.748;48.742;2023-02-28T17:01:36;3.27;;;2.22;;
78781;SDS011;68126;55.748;48.742;2023-02-28T17:07:01;4.78;;;2.67;;
78781;SDS011;68126;55.748;48.742;2023-02-28T17:12:26;3.30;;;2.27;;
78781;SDS011;68126;55.748;48.742;2023-02-28T17:17:50;3.98;;;2.83;;
78781;SDS011;68126;55.748;48.742;2023-02-28T17:23:15;4.15;;;2.85;;
78781;SDS011;68126;55.748;48.742;2023-02-28T17:28:40;3.12;;;1.77;;
78781;SDS011;68126;55.748;48.742;2023-02-28T17:34:05;5.00;;;2.60;;
78781;SDS011;68126;55.748;48.742;2023-02-28T17:39:29;4.15;;;3.35;;
78781;SDS011;68126;55.748;48.742;2023-02-28T17:44:54;5.10;;;3.95;;
78781;SDS011;68126;55.748;48.742;2023-02-28T17:50:20;4.85;;;3.90;;
78781;SDS011;68126;55.748;48.742;2023-02-28T17:55:45;4.08;;;3.30;;
78781;SDS011;68126;55.748;48.742;2023-02-28T18:01:09;4.55;;;2.60;;
78781;SDS011;68126;55.748;48.742;2023-02-28T18:12:20;5.65;;;3.02;;
78781;SDS011;68126;55.748;48.742;2023-02-28T18:17:45;4.58;;;3.62;;
78781;SDS011;68126;55.748;48.742;2023-02-28T18:23:10;4.85;;;2.98;;
78781;SDS011;68126;55.748;48.742;2023-02-28T18:28:34;6.65;;;3.95;;
78781;SDS011;68126;55.748;48.742;2023-02-28T18:34:01;5.92;;;3.80;;
78781;SDS011;68126;55.748;48.742;2023-02-28T18:39:25;6.37;;;3.22;;
78781;SDS011;68126;55.748;48.742;2023-02-28T18:44:50;5.60;;;3.83;;
78781;SDS011;68126;55.748;48.742;2023-02-28T18:50:15;5.15;;;4.35;;
78781;SDS011;68126;55.748;48.742;2023-02-28T18:55:40;6.15;;;3.47;;
78781;SDS011;68126;55.748;48.742;2023-02-28T19:01:11;4.45;;;2.83;;
78781;SDS011;68126;55.748;48.742;2023-02-28T19:06:30;9.23;;;3.12;;
78781;SDS011;68126;55.748;48.742;2023-02-28T19:17:22;3.85;;;2.25;;
78781;SDS011;68126;55.748;48.742;2023-02-28T19:22:46;4.65;;;3.42;;
78781;SDS011;68126;55.748;48.742;2023-02-28T19:28:12;6.90;;;3.45;;
78781;SDS011;68126;55.748;48.742;2023-02-28T19:33:36;5.72;;;2.65;;
78781;SDS011;68126;55.748;48.742;2023-02-28T19:39:04;5.87;;;3.47;;
78781;SDS011;68126;55.748;48.742;2023-02-28T19:44:29;4.85;;;2.87;;
78781;SDS011;68126;55.748;48.742;2023-02-28T19:49:54;4.95;;;2.47;;
78781;SDS011;68126;55.748;48.742;2023-02-28T19:55:19;4.22;;;2.87;;
78781;SDS011;68126;55.748;48.742;2023-02-28T20:00:43;5.45;;;3.75;;
78781;SDS011;68126;55.748;48.742;2023-02-28T20:06:10;4.35;;;3.05;;
78781;SDS011;68126;55.748;48.742;2023-02-28T20:11:36;5.45;;;2.98;;
78781;SDS011;68126;55.748;48.742;2023-02-28T20:17:00;7.12;;;3.05;;
78781;SDS011;68126;55.748;48.742;2023-02-28T20:22:25;4.33;;;3.33;;
78781;SDS011;68126;55.748;48.742;2023-02-28T20:27:50;3.40;;;1.98;;
78781;SDS011;68126;55.748;48.742;2023-02-28T20:33:15;4.70;;;3.55;;
78781;SDS011;68126;55.748;48.742;2023-02-28T20:38:40;3.47;;;2.72;;
78781;SDS011;68126;55.748;48.742;2023-02-28T20:44:05;3.05;;;1.87;;
78781;SDS011;68126;55.748;48.742;2023-02-28T20:49:29;4.33;;;2.95;;
78781;SDS011;68126;55.748;48.742;2023-02-28T20:54:54;3.45;;;2.85;;
78781;SDS011;68126;55.748;48.742;2023-02-28T21:00:21;3.15;;;2.17;;
78781;SDS011;68126;55.748;48.742;2023-02-28T21:05:47;4.05;;;3.72;;
78781;SDS011;68126;55.748;48.742;2023-02-28T21:11:13;2.65;;;1.95;;
78781;SDS011;68126;55.748;48.742;2023-02-28T21:16:38;3.05;;;2.12;;
78781;SDS011;68126;55.748;48.742;2023-02-28T21:22:02;2.95;;;2.17;;
78781;SDS011;68126;55.748;48.742;2023-02-28T21:27:27;2.58;;;2.15;;
78781;SDS011;68126;55.748;48.742;2023-02-28T21:32:52;2.08;;;1.70;;
78781;SDS011;68126;55.748;48.742;2023-02-28T21:38:18;2.80;;;2.45;;
78781;SDS011;68126;55.748;48.742;2023-02-28T21:43:43;3.80;;;2.72;;
78781;SDS011;68126;55.748;48.742;2023-02-28T21:49:28;5.35;;;2.22;;
78781;SDS011;68126;55.748;48.742;2023-02-28T21:54:53;2.77;;;2.58;;
78781;SDS011;68126;55.748;48.742;2023-02-28T22:00:18;3.30;;;2.05;;
78781;SDS011;68126;55.748;48.742;2023-02-28T22:05:43;2.52;;;2.30;;
78781;SDS011;68126;55.748;48.742;2023-02-28T22:11:09;3.90;;;2.45;;
78781;SDS011;68126;55.748;48.742;2023-02-28T22:16:35;3.17;;;2.83;;
78781;SDS011;68126;55.748;48.742;2023-02-28T22:22:00;3.65;;;3.35;;
78781;SDS011;68126;55.748;48.742;2023-02-28T22:27:25;1.98;;;1.85;;
78781;SDS011;68126;55.748;48.742;2023-02-28T22:32:50;2.27;;;2.08;;
78781;SDS011;68126;55.748;48.742;2023-02-28T22:38:15;3.85;;;2.05;;
78781;SDS011;68126;55.748;48.742;2023-02-28T22:43:40;2.25;;;1.70;;
78781;SDS011;68126;55.748;48.742;2023-02-28T22:49:05;2.60;;;1.90;;
78781;SDS011;68126;55.748;48.742;2023-02-28T22:54:30;2.70;;;2.45;;
78781;SDS011;68126;55.748;48.742;2023-02-28T22:59:55;1.90;;;1.27;;
78781;SDS011;68126;55.748;48.742;2023-02-28T23:05:19;3.87;;;2.60;;
78781;SDS011;68126;55.748;48.742;2023-02-28T23:10:44;5.50;;;1.80;;
78781;SDS011;68126;55.748;48.742;2023-02-28T23:16:09;3.98;;;2.85;;
78781;SDS011;68126;55.748;48.742;2023-02-28T23:21:34;2.52;;;2.00;;
78781;SDS011;68126;55.748;48.742;2023-02-28T23:27:00;4.00;;;2.77;;
78781;SDS011;68126;55.748;48.742;2023-02-28T23:32:25;2.47;;;1.95;;
78781;SDS011;68126;55.748;48.742;2023-02-28T23:37:50;2.15;;;1.47;;
78781;SDS011;68126;55.748;48.742;2023-02-28T23:43:15;2.00;;;1.57;;
78781;SDS011;68126;55.748;48.742;2023-02-28T23:48:40;13.00;;;3.45;;
78781;SDS011;68126;55.748;48.742;2023-02-28T23:54:06;3.02;;;2.22;;
78781;SDS011;68126;55.748;48.742;2023-02-28T23:59:31;3.52;;;3.00;;
